Time;durP1;ratioP1;P1;durP2;ratioP2;P2;SDS_P1;SDS_P2;PMS_P1;PMS_P2;Temp;Humidity;BMP_temperature;BMP_pressure;BME280_temperature;BME280_humidity;BME280_pressure;Samples;Min_cycle;Max_cycle;Signal;HPM_P1;HPM_P2
2022/11/14 00:00:23;;;;;;;21.90;9.37;;;;;;;5.59;100.00;96336.06;5059798;28;20204;-71
2022/11/14 00:02:50;;;;;;;22.77;8.77;;;;;;;5.57;100.00;96324.94;5058450;28;20206;-71
2022/11/14 00:05:17;;;;;;;22.90;8.33;;;;;;;5.44;100.00;96327.84;5058374;28;20700;-71
2022/11/14 00:07:46;;;;;;;27.73;9.37;;;;;;;5.62;100.00;96325.31;5058392;28;20227;-71
2022/11/14 00:10:13;;;;;;;22.40;8.50;;;;;;;5.64;100.00;96323.41;5059072;28;20752;-71
2022/11/14 00:12:39;;;;;;;22.17;8.07;;;;;;;5.35;100.00;96320.06;5058072;28;20211;-71
2022/11/14 00:15:06;;;;;;;21.90;8.60;;;;;;;5.61;100.00;96316.66;5064053;28;21186;-71
2022/11/14 00:17:33;;;;;;;20.37;8.07;;;;;;;5.44;100.00;96306.16;5058525;28;20895;-71
2022/11/14 00:19:59;;;;;;;22.07;8.77;;;;;;;5.40;100.00;96304.78;5063690;28;20204;-71
2022/11/14 00:22:26;;;;;;;24.60;9.53;;;;;;;5.42;100.00;96312.47;5060459;28;20208;-71
2022/11/14 00:24:54;;;;;;;19.70;8.37;;;;;;;5.45;100.00;96303.38;5059069;28;20204;-71
2022/11/14 00:27:20;;;;;;;21.20;9.00;;;;;;;5.43;100.00;96303.69;5058377;28;20744;-71
2022/11/14 00:29:47;;;;;;;19.83;8.10;;;;;;;5.43;100.00;96314.94;5057916;28;20200;-71
2022/11/14 00:32:13;;;;;;;20.97;8.30;;;;;;;5.51;100.00;96315.03;5058745;28;20220;-71
2022/11/14 00:34:40;;;;;;;15.83;6.63;;;;;;;5.46;100.00;96309.44;5057977;28;20224;-71
2022/11/14 00:37:06;;;;;;;20.07;8.07;;;;;;;5.44;100.00;96299.13;5057844;28;20235;-71
2022/11/14 00:39:33;;;;;;;19.67;8.43;;;;;;;5.49;100.00;96298.69;5058507;28;20583;-71
2022/11/14 00:42:01;;;;;;;21.93;9.20;;;;;;;5.67;100.00;96307.41;5055740;28;20204;-71
2022/11/14 00:44:27;;;;;;;19.37;7.63;;;;;;;5.64;100.00;96310.31;5056960;28;20208;-71
2022/11/14 00:46:54;;;;;;;22.27;8.47;;;;;;;5.63;100.00;96319.94;5058357;28;20226;-71
2022/11/14 00:49:20;;;;;;;21.00;8.70;;;;;;;5.58;100.00;96316.94;5057980;28;20200;-71
2022/11/14 00:51:47;;;;;;;22.00;8.93;;;;;;;5.74;100.00;96318.91;5057733;28;20211;-71
2022/11/14 00:54:13;;;;;;;22.40;8.47;;;;;;;5.78;100.00;96317.69;5057495;28;20224;-71
2022/11/14 00:56:40;;;;;;;19.17;8.80;;;;;;;5.86;100.00;96307.34;5057368;28;20200;-72
2022/11/14 00:59:08;;;;;;;26.47;9.50;;;;;;;5.86;100.00;96304.72;5068805;28;20208;-71
2022/11/14 01:01:34;;;;;;;24.80;9.23;;;;;;;5.79;100.00;96301.88;5059054;28;20200;-71
2022/11/14 01:04:01;;;;;;;23.43;10.03;;;;;;;5.73;100.00;96309.44;5062394;28;20583;-71
2022/11/14 01:06:27;;;;;;;24.40;9.43;;;;;;;5.76;100.00;96299.53;5060006;28;20200;-70
2022/11/14 01:08:54;;;;;;;22.77;9.30;;;;;;;5.73;100.00;96299.00;5064015;28;20553;-70
2022/11/14 01:11:22;;;;;;;20.33;8.47;;;;;;;5.85;100.00;96290.81;5058117;28;20207;-68
2022/11/14 01:13:49;;;;;;;20.37;8.50;;;;;;;5.84;100.00;96286.56;5064464;28;20232;-68
2022/11/14 01:16:18;;;;;;;23.13;9.97;;;;;;;5.76;100.00;96280.41;5067316;28;20244;-70
2022/11/14 01:18:44;;;;;;;20.07;8.07;;;;;;;5.81;100.00;96275.56;5057971;28;20224;-70
2022/11/14 01:21:13;;;;;;;18.33;8.13;;;;;;;5.88;100.00;96277.47;5067842;28;20204;-68
2022/11/14 01:23:40;;;;;;;18.83;8.17;;;;;;;5.86;100.00;96276.78;5065811;28;20204;-68
2022/11/14 01:26:09;;;;;;;18.70;8.27;;;;;;;5.85;100.00;96292.63;5062317;28;20223;-70
2022/11/14 01:28:36;;;;;;;19.30;8.53;;;;;;;5.86;100.00;96286.41;5058611;28;20243;-70
2022/11/14 01:31:11;;;;;;;18.40;7.37;;;;;;;5.97;100.00;96286.19;5067101;28;20200;-70
2022/11/14 01:33:39;;;;;;;20.73;8.30;;;;;;;5.98;100.00;96280.00;5058596;28;20219;-68
2022/11/14 01:36:06;;;;;;;17.63;7.63;;;;;;;5.78;100.00;96289.75;5058010;28;20234;-69
2022/11/14 01:38:33;;;;;;;17.67;8.17;;;;;;;5.83;100.00;96292.75;5066380;28;20711;-70
2022/11/14 01:41:00;;;;;;;30.93;8.70;;;;;;;5.81;100.00;96292.06;5070215;28;20227;-69
2022/11/14 01:43:32;;;;;;;17.97;8.10;;;;;;;5.79;100.00;96280.97;5066122;28;20204;-71
2022/11/14 01:46:01;;;;;;;22.30;8.17;;;;;;;5.83;100.00;96260.53;5057072;28;20210;-71
2022/11/14 01:48:34;;;;;;;16.80;7.93;;;;;;;5.89;100.00;96259.97;5057204;28;20246;-71
2022/11/14 01:51:08;;;;;;;21.90;9.10;;;;;;;5.86;100.00;96249.81;5057016;28;20204;-71
2022/11/14 01:53:35;;;;;;;18.93;8.00;;;;;;;5.80;100.00;96250.41;5056289;28;20576;-71
2022/11/14 01:56:04;;;;;;;16.17;7.47;;;;;;;5.84;100.00;96249.13;5057469;28;20218;-71
2022/11/14 01:58:32;;;;;;;20.97;8.60;;;;;;;5.79;100.00;96262.66;5056879;28;20216;-71
2022/11/14 02:00:59;;;;;;;17.93;8.27;;;;;;;5.83;100.00;96257.94;5056824;28;20218;-71
2022/11/14 02:03:26;;;;;;;22.30;8.63;;;;;;;5.85;100.00;96248.97;5056610;28;20576;-71
2022/11/14 02:05:54;;;;;;;16.33;7.33;;;;;;;5.98;100.00;96246.81;5075165;28;20291;-71
2022/11/14 02:08:23;;;;;;;16.20;7.23;;;;;;;5.92;100.00;96233.50;5067339;28;20708;-71
2022/11/14 02:10:50;;;;;;;20.47;7.63;;;;;;;5.81;100.00;96221.47;5056940;28;20885;-70
2022/11/14 02:13:16;;;;;;;14.80;6.97;;;;;;;5.79;100.00;96212.97;5056619;28;20218;-71
2022/11/14 02:15:43;;;;;;;18.53;8.00;;;;;;;5.85;100.00;96207.13;5056645;28;20220;-70
2022/11/14 02:18:11;;;;;;;14.50;6.03;;;;;;;5.71;100.00;96212.03;5056812;28;20317;-71
2022/11/14 02:20:42;;;;;;;16.10;6.90;;;;;;;5.75;100.00;96211.59;5057133;28;20215;-71
2022/11/14 02:23:10;;;;;;;17.63;7.40;;;;;;;5.70;100.00;96221.69;5056191;28;20293;-70
2022/11/14 02:25:37;;;;;;;20.87;8.20;;;;;;;5.70;100.00;96229.53;5057118;28;20208;-70
2022/11/14 02:28:04;;;;;;;20.83;8.23;;;;;;;5.77;100.00;96250.69;5064464;28;20730;-70
2022/11/14 02:30:31;;;;;;;18.27;7.87;;;;;;;5.70;100.00;96270.50;5056407;28;20201;-71
2022/11/14 02:32:58;;;;;;;21.13;7.93;;;;;;;5.69;100.00;96295.00;5063879;28;20675;-71
2022/11/14 02:35:24;;;;;;;19.47;7.57;;;;;;;5.77;100.00;96290.72;5056270;28;20234;-71
2022/11/14 02:37:52;;;;;;;20.10;8.37;;;;;;;5.85;100.00;96296.03;5056752;28;20224;-71
2022/11/14 02:40:19;;;;;;;21.23;8.73;;;;;;;5.84;100.00;96293.56;5056537;28;20212;-72
2022/11/14 02:42:45;;;;;;;20.63;8.63;;;;;;;5.87;100.00;96299.34;5052384;28;20200;-71
2022/11/14 02:45:13;;;;;;;22.13;8.43;;;;;;;5.87;100.00;96298.50;5056892;28;20688;-70
2022/11/14 02:47:40;;;;;;;21.90;8.23;;;;;;;5.85;100.00;96290.00;5060323;28;20224;-71
2022/11/14 02:50:06;;;;;;;21.83;9.07;;;;;;;5.71;100.00;96282.63;5060692;28;20200;-70
2022/11/14 02:52:33;;;;;;;21.57;8.27;;;;;;;5.72;100.00;96274.63;5059594;28;20208;-68
2022/11/14 02:55:01;;;;;;;18.53;7.67;;;;;;;5.83;100.00;96281.47;5060461;28;20227;-72
2022/11/14 02:57:27;;;;;;;18.87;7.60;;;;;;;5.71;100.00;96272.97;5060321;28;20599;-71
2022/11/14 02:59:54;;;;;;;19.07;7.57;;;;;;;5.72;100.00;96263.34;5060046;28;20214;-71
2022/11/14 03:02:20;;;;;;;20.73;7.73;;;;;;;5.74;100.00;96267.47;5059567;28;20199;-71
2022/11/14 03:04:47;;;;;;;23.10;8.27;;;;;;;5.66;100.00;96259.50;5059999;28;20215;-71
2022/11/14 03:07:14;;;;;;;18.33;7.77;;;;;;;5.65;100.00;96264.91;5068222;28;20224;-70
2022/11/14 03:09:40;;;;;;;19.63;8.10;;;;;;;5.67;100.00;96265.59;5056312;28;20223;-70
2022/11/14 03:12:09;;;;;;;18.07;7.33;;;;;;;5.76;100.00;96275.19;5062309;28;20219;-70
2022/11/14 03:14:35;;;;;;;20.93;9.20;;;;;;;5.78;100.00;96279.31;5059298;28;20580;-71
2022/11/14 03:17:02;;;;;;;19.00;7.90;;;;;;;5.81;100.00;96270.34;5071400;28;20235;-70
2022/11/14 03:19:28;;;;;;;18.80;8.30;;;;;;;5.74;100.00;96274.47;5069705;28;20911;-70
2022/11/14 03:21:55;;;;;;;17.23;7.60;;;;;;;5.70;100.00;96270.50;5059765;28;20230;-70
2022/11/14 03:24:21;;;;;;;21.00;8.40;;;;;;;5.80;100.00;96255.63;5067038;28;20727;-71
2022/11/14 03:26:48;;;;;;;23.03;8.17;;;;;;;5.83;100.00;96255.31;5060120;28;21051;-70
2022/11/14 03:29:16;;;;;;;19.57;8.10;;;;;;;5.91;100.00;96258.84;5059783;28;20310;-70
2022/11/14 03:31:42;;;;;;;21.00;8.73;;;;;;;5.97;100.00;96241.72;5059994;28;20200;-69
2022/11/14 03:34:09;;;;;;;18.90;8.40;;;;;;;5.84;100.00;96242.13;5059473;28;20208;-69
2022/11/14 03:36:36;;;;;;;18.80;8.13;;;;;;;5.85;100.00;96238.50;5059128;28;20216;-70
2022/11/14 03:39:03;;;;;;;16.97;7.77;;;;;;;5.90;100.00;96253.78;5059682;28;20684;-70
2022/11/14 03:41:30;;;;;;;22.40;9.23;;;;;;;5.96;100.00;96261.00;5056590;28;20204;-70
2022/11/14 03:43:56;;;;;;;21.17;9.17;;;;;;;6.00;100.00;96262.38;5060766;28;20205;-70
2022/11/14 03:46:24;;;;;;;21.90;8.67;;;;;;;5.98;100.00;96256.47;5059934;28;20207;-70
2022/11/14 03:48:51;;;;;;;22.70;9.03;;;;;;;6.01;100.00;96256.16;5067298;28;20602;-70
2022/11/14 03:51:18;;;;;;;17.90;8.47;;;;;;;6.02;100.00;96256.03;5066942;28;20197;-70
2022/11/14 03:53:44;;;;;;;20.10;8.40;;;;;;;5.91;100.00;96243.16;5068758;28;20201;-70
2022/11/14 03:56:11;;;;;;;24.23;8.67;;;;;;;5.95;100.00;96244.50;5068037;28;20723;-70
2022/11/14 03:58:37;;;;;;;20.17;8.73;;;;;;;5.86;100.00;96228.91;5067211;28;20309;-70
2022/11/14 04:01:04;;;;;;;23.67;9.80;;;;;;;5.84;100.00;96233.44;5067659;28;20219;-70
2022/11/14 04:03:32;;;;;;;21.90;8.53;;;;;;;5.97;100.00;96231.28;5065537;28;20664;-70
2022/11/14 04:05:58;;;;;;;23.60;9.83;;;;;;;5.85;100.00;96219.41;5058136;28;20737;-70
2022/11/14 04:08:25;;;;;;;18.70;7.80;;;;;;;5.89;100.00;96198.00;5058372;28;20231;-71
2022/11/14 04:10:51;;;;;;;18.73;7.63;;;;;;;5.92;100.00;96202.13;5059406;28;20207;-70
2022/11/14 04:13:18;;;;;;;19.03;8.10;;;;;;;5.87;100.00;96199.13;5055300;28;20655;-70
2022/11/14 04:15:45;;;;;;;18.17;7.03;;;;;;;5.82;100.00;96204.84;5057964;28;20227;-70
2022/11/14 04:18:11;;;;;;;21.47;8.67;;;;;;;5.80;100.00;96192.88;5057328;28;20305;-70
2022/11/14 04:20:39;;;;;;;22.83;8.23;;;;;;;5.93;100.00;96198.56;5057405;28;20209;-70
2022/11/14 04:23:05;;;;;;;21.17;8.10;;;;;;;5.91;100.00;96187.44;5064608;28;20212;-71
2022/11/14 04:25:32;;;;;;;26.07;10.30;;;;;;;5.91;100.00;96201.31;5056911;28;20258;-71
2022/11/14 04:27:58;;;;;;;38.67;12.37;;;;;;;5.88;100.00;96200.78;5057191;28;20220;-71
2022/11/14 04:30:25;;;;;;;34.60;11.80;;;;;;;5.83;100.00;96203.03;5072885;28;20207;-70
2022/11/14 04:32:51;;;;;;;29.87;11.30;;;;;;;5.90;100.00;96209.31;5065545;28;20212;-70
2022/11/14 04:35:18;;;;;;;27.53;10.87;;;;;;;5.98;100.00;96214.63;5058218;28;20224;-70
2022/11/14 04:37:46;;;;;;;21.23;9.27;;;;;;;6.01;100.00;96211.69;5066171;28;21261;-70
2022/11/14 04:40:12;;;;;;;21.63;9.27;;;;;;;6.08;100.00;96203.94;5062866;28;20204;-71
2022/11/14 04:42:39;;;;;;;31.37;12.37;;;;;;;6.06;100.00;96213.72;5065582;28;20197;-70
2022/11/14 04:45:07;;;;;;;42.17;15.87;;;;;;;6.15;100.00;96210.19;5062809;28;20659;-70
2022/11/14 04:47:34;;;;;;;27.20;9.90;;;;;;;6.10;100.00;96207.22;5066093;28;20229;-70
2022/11/14 04:50:00;;;;;;;28.30;10.87;;;;;;;6.18;100.00;96204.66;5057999;28;20215;-71
2022/11/14 04:52:27;;;;;;;23.93;9.70;;;;;;;6.13;100.00;96212.13;5057446;28;20216;-71
2022/11/14 04:54:55;;;;;;;35.83;11.93;;;;;;;6.14;100.00;96207.75;5058598;28;20229;-70
2022/11/14 04:57:21;;;;;;;33.37;11.33;;;;;;;6.07;100.00;96211.91;5060556;28;20224;-71
2022/11/14 04:59:48;;;;;;;32.27;10.93;;;;;;;6.23;100.00;96207.63;5063968;28;20211;-71
2022/11/14 05:02:14;;;;;;;25.73;9.90;;;;;;;6.27;100.00;96208.97;5058057;28;20967;-71
2022/11/14 05:04:43;;;;;;;22.53;8.43;;;;;;;6.24;100.00;96190.16;5057600;28;20208;-71
2022/11/14 05:07:09;;;;;;;26.67;10.33;;;;;;;6.17;100.00;96182.09;5057471;28;20231;-71
2022/11/14 05:09:36;;;;;;;26.47;8.90;;;;;;;6.19;100.00;96195.03;5057862;28;20204;-71
2022/11/14 05:12:05;;;;;;;23.57;9.67;;;;;;;6.23;100.00;96197.19;5058423;28;20212;-71
2022/11/14 05:14:32;;;;;;;24.57;10.37;;;;;;;6.17;100.00;96181.25;5055433;28;20581;-71
2022/11/14 05:16:58;;;;;;;23.53;9.63;;;;;;;6.16;100.00;96195.31;5063447;28;20224;-71
2022/11/14 05:19:25;;;;;;;23.83;9.87;;;;;;;6.19;100.00;96195.84;5064343;28;20210;-70
2022/11/14 05:21:52;;;;;;;24.53;10.20;;;;;;;6.21;100.00;96188.66;5057369;28;20204;-69
2022/11/14 05:24:19;;;;;;;24.03;9.30;;;;;;;6.27;100.00;96190.66;5056815;28;20204;-68
2022/11/14 05:26:45;;;;;;;24.63;10.30;;;;;;;6.21;100.00;96191.28;5059597;28;20228;-70
2022/11/14 05:29:13;;;;;;;23.33;9.77;;;;;;;6.34;100.00;96177.78;5062075;28;20208;-70
2022/11/14 05:31:40;;;;;;;26.53;9.93;;;;;;;6.23;100.00;96165.78;5057021;28;20674;-70
2022/11/14 05:34:06;;;;;;;29.57;11.83;;;;;;;6.30;100.00;96166.00;5057011;28;20212;-71
2022/11/14 05:36:33;;;;;;;25.80;10.70;;;;;;;6.26;100.00;96170.72;5057011;28;20843;-71
2022/11/14 05:38:59;;;;;;;50.93;14.33;;;;;;;6.31;100.00;96171.09;5057289;28;20216;-71
2022/11/14 05:41:26;;;;;;;37.57;12.30;;;;;;;6.26;100.00;96165.50;5057787;28;20212;-71
2022/11/14 05:43:52;;;;;;;33.63;11.17;;;;;;;6.21;100.00;96167.75;5056976;28;20205;-71
2022/11/14 05:46:20;;;;;;;30.97;11.40;;;;;;;6.31;100.00;96165.88;5057367;28;20197;-71
2022/11/14 05:48:47;;;;;;;30.50;11.23;;;;;;;6.26;100.00;96164.66;5056978;28;20216;-71
2022/11/14 05:51:13;;;;;;;25.20;10.80;;;;;;;6.24;100.00;96167.44;5057622;28;20577;-71
2022/11/14 05:53:41;;;;;;;28.13;11.70;;;;;;;6.34;100.00;96172.56;5058702;28;20208;-71
2022/11/14 05:56:11;;;;;;;29.23;11.87;;;;;;;6.37;100.00;96174.88;5062366;28;20266;-71
2022/11/14 05:58:38;;;;;;;23.03;10.27;;;;;;;6.31;100.00;96193.81;5059067;28;20325;-71
2022/11/14 06:01:07;;;;;;;24.20;9.93;;;;;;;6.28;100.00;96202.78;5062730;28;20215;-71
2022/11/14 06:03:37;;;;;;;26.70;10.57;;;;;;;6.30;100.00;96213.94;5056147;28;20299;-71
2022/11/14 06:06:06;;;;;;;22.93;9.20;;;;;;;6.38;100.00;96210.56;5056955;28;21098;-71
2022/11/14 06:08:33;;;;;;;22.77;9.00;;;;;;;6.31;100.00;96204.28;5056902;28;20228;-71
2022/11/14 06:11:02;;;;;;;24.17;9.23;;;;;;;6.27;100.00;96192.47;5057085;28;20676;-71
2022/11/14 06:13:28;;;;;;;25.00;9.37;;;;;;;6.34;100.00;96199.56;5054684;28;20254;-71
2022/11/14 06:15:58;;;;;;;23.50;9.10;;;;;;;6.35;100.00;96208.22;5056645;28;20799;-71
2022/11/14 06:18:25;;;;;;;27.07;10.37;;;;;;;6.17;100.00;96223.97;5055572;28;21267;-70
2022/11/14 06:20:53;;;;;;;25.67;9.40;;;;;;;6.29;100.00;96227.97;5057847;28;20209;-70
2022/11/14 06:23:19;;;;;;;22.73;8.60;;;;;;;6.15;100.00;96225.91;5061546;28;20254;-71
2022/11/14 06:25:46;;;;;;;23.90;9.23;;;;;;;6.24;100.00;96217.13;5060778;28;20192;-71
2022/11/14 06:28:12;;;;;;;23.67;9.63;;;;;;;6.16;100.00;96211.00;5067593;28;20239;-71
2022/11/14 06:30:40;;;;;;;28.77;10.67;;;;;;;6.13;100.00;96211.31;5061130;28;20661;-71
2022/11/14 06:33:06;;;;;;;28.27;10.10;;;;;;;6.07;100.00;96217.97;5065638;28;20323;-71
2022/11/14 06:35:34;;;;;;;23.23;9.07;;;;;;;6.13;100.00;96222.59;5060629;28;20239;-71
2022/11/14 06:38:02;;;;;;;25.97;11.40;;;;;;;6.24;100.00;96216.31;5065943;28;20223;-71
2022/11/14 06:40:28;;;;;;;30.83;10.80;;;;;;;6.21;100.00;96209.59;5063003;28;20227;-71
2022/11/14 06:42:55;;;;;;;24.93;10.17;;;;;;;6.14;100.00;96223.44;5060404;28;20208;-70
2022/11/14 06:45:22;;;;;;;23.10;9.33;;;;;;;6.18;100.00;96237.84;5060586;28;20219;-72
2022/11/14 06:47:48;;;;;;;25.43;9.07;;;;;;;6.13;100.00;96232.25;5060376;28;20731;-71
2022/11/14 06:50:15;;;;;;;22.90;9.70;;;;;;;6.15;100.00;96254.66;5060793;28;20205;-71
2022/11/14 06:52:41;;;;;;;23.87;8.63;;;;;;;6.15;100.00;96256.47;5067755;28;20200;-68
2022/11/14 06:55:09;;;;;;;25.63;10.03;;;;;;;6.11;100.00;96255.13;5068550;28;20200;-69
2022/11/14 06:57:36;;;;;;;20.30;8.30;;;;;;;6.11;100.00;96258.56;5066979;28;20220;-68
2022/11/14 07:00:03;;;;;;;23.93;9.20;;;;;;;6.07;100.00;96249.38;5068210;28;20214;-70
2022/11/14 07:02:30;;;;;;;23.27;9.23;;;;;;;6.08;100.00;96244.94;5066962;28;20214;-70
2022/11/14 07:04:57;;;;;;;21.67;8.43;;;;;;;6.17;100.00;96244.06;5060125;28;20200;-70
2022/11/14 07:07:24;;;;;;;24.13;9.93;;;;;;;6.20;100.00;96244.59;5060043;28;20232;-70
2022/11/14 07:09:50;;;;;;;22.53;9.10;;;;;;;6.15;100.00;96253.84;5059918;28;20204;-69
2022/11/14 07:12:18;;;;;;;23.97;9.07;;;;;;;6.17;100.00;96239.66;5056571;28;20657;-70
2022/11/14 07:14:45;;;;;;;23.27;8.97;;;;;;;6.18;100.00;96236.03;5059535;28;20212;-70
2022/11/14 07:17:11;;;;;;;32.43;8.57;;;;;;;6.28;100.00;96231.56;5065888;28;20700;-70
2022/11/14 07:19:38;;;;;;;21.33;9.17;;;;;;;6.25;100.00;96249.34;5060565;28;20211;-70
2022/11/14 07:22:04;;;;;;;22.73;9.97;;;;;;;6.33;100.00;96249.44;5069516;28;20581;-70
2022/11/14 07:24:31;;;;;;;20.37;8.23;;;;;;;6.39;100.00;96248.81;5059755;28;20216;-70
2022/11/14 07:26:57;;;;;;;22.63;8.97;;;;;;;6.39;100.00;96267.97;5059907;28;20224;-70
2022/11/14 07:29:25;;;;;;;20.90;7.50;;;;;;;6.34;100.00;96274.59;5059498;28;20204;-70
2022/11/14 07:31:52;;;;;;;19.27;7.87;;;;;;;6.31;100.00;96270.53;5061793;28;20197;-70
2022/11/14 07:34:18;;;;;;;20.27;8.47;;;;;;;6.43;100.00;96265.84;5061844;28;20703;-70
2022/11/14 07:36:45;;;;;;;19.77;8.43;;;;;;;6.36;100.00;96276.09;5061436;28;20224;-70
2022/11/14 07:39:11;;;;;;;22.10;9.13;;;;;;;6.22;100.00;96274.03;5059629;28;20224;-70
2022/11/14 07:41:39;;;;;;;24.00;9.27;;;;;;;6.30;100.00;96266.25;5059596;28;20600;-70
2022/11/14 07:44:06;;;;;;;20.33;8.63;;;;;;;6.41;100.00;96270.44;5058852;28;20655;-70
2022/11/14 07:46:34;;;;;;;19.77;8.23;;;;;;;6.42;100.00;96265.03;5059510;28;20565;-70
2022/11/14 07:49:00;;;;;;;22.97;9.23;;;;;;;6.47;100.00;96262.78;5059255;28;20661;-70
2022/11/14 07:51:27;;;;;;;23.57;9.27;;;;;;;6.56;100.00;96264.50;5057205;28;20205;-70
2022/11/14 07:53:53;;;;;;;20.50;9.23;;;;;;;6.45;100.00;96262.13;5058685;28;20211;-70
2022/11/14 07:56:21;;;;;;;22.50;9.00;;;;;;;6.44;100.00;96262.28;5059038;28;20231;-70
2022/11/14 07:58:47;;;;;;;20.23;8.80;;;;;;;6.63;100.00;96255.06;5058898;28;20248;-70
2022/11/14 08:01:14;;;;;;;20.90;9.03;;;;;;;6.69;100.00;96278.03;5063870;28;20200;-70
2022/11/14 08:03:42;;;;;;;22.17;9.00;;;;;;;6.82;100.00;96278.44;5063328;28;21266;-70
2022/11/14 08:06:12;;;;;;;25.77;9.10;;;;;;;6.68;100.00;96284.22;5064937;28;20265;-67
2022/11/14 08:08:38;;;;;;;22.80;9.13;;;;;;;6.68;100.00;96282.44;5060117;28;20224;-69
2022/11/14 08:11:05;;;;;;;20.20;8.77;;;;;;;6.81;100.00;96287.25;5063166;28;20204;-70
2022/11/14 08:13:32;;;;;;;20.67;9.10;;;;;;;6.76;100.00;96277.25;5059870;28;20204;-69
2022/11/14 08:15:59;;;;;;;20.67;9.17;;;;;;;6.95;100.00;96274.44;5058984;28;20224;-70
2022/11/14 08:18:26;;;;;;;23.13;8.63;;;;;;;6.84;100.00;96272.06;5061889;28;20231;-70
2022/11/14 08:20:56;;;;;;;20.43;8.30;;;;;;;7.06;100.00;96273.38;5064526;28;20209;-70
2022/11/14 08:23:23;;;;;;;17.63;7.33;;;;;;;6.84;100.00;96272.06;5062759;28;20303;-70
2022/11/14 08:25:49;;;;;;;19.27;8.43;;;;;;;6.93;100.00;96273.75;5064705;28;20208;-70
2022/11/14 08:28:16;;;;;;;20.77;8.77;;;;;;;6.80;100.00;96259.44;5058844;28;20220;-70
2022/11/14 08:30:42;;;;;;;19.27;8.10;;;;;;;7.11;100.00;96260.63;5058589;28;20251;-70
2022/11/14 08:33:09;;;;;;;16.37;7.50;;;;;;;7.25;100.00;96260.84;5060600;28;20204;-68
2022/11/14 08:35:35;;;;;;;22.13;8.10;;;;;;;7.23;100.00;96252.34;5062738;28;20215;-71
2022/11/14 08:38:03;;;;;;;21.27;8.07;;;;;;;7.21;100.00;96248.25;5065223;28;20226;-70
2022/11/14 08:40:30;;;;;;;19.63;7.93;;;;;;;7.24;100.00;96247.91;5068601;28;20207;-70
2022/11/14 08:43:01;;;;;;;17.93;9.10;;;;;;;7.12;100.00;96254.41;5061422;28;20212;-71
2022/11/14 08:45:27;;;;;;;20.27;8.37;;;;;;;7.17;100.00;96258.19;5068760;28;20683;-71
2022/11/14 08:47:54;;;;;;;16.73;7.83;;;;;;;7.32;100.00;96259.28;5065606;28;20225;-70
2022/11/14 08:50:21;;;;;;;19.03;7.93;;;;;;;7.22;100.00;96263.81;5061233;28;20204;-70
2022/11/14 08:52:51;;;;;;;18.37;9.07;;;;;;;7.34;100.00;96273.03;5060071;28;20306;-71
2022/11/14 08:55:20;;;;;;;17.90;8.13;;;;;;;7.33;100.00;96266.13;5064203;28;20201;-71
2022/11/14 08:57:47;;;;;;;21.70;8.80;;;;;;;7.26;100.00;96247.59;5067612;28;20231;-71
2022/11/14 09:00:15;;;;;;;18.33;8.30;;;;;;;7.36;100.00;96264.03;5066769;28;20204;-71
2022/11/14 09:02:41;;;;;;;18.17;8.67;;;;;;;7.25;100.00;96255.63;5063147;28;20204;-70
2022/11/14 09:05:09;;;;;;;18.93;8.37;;;;;;;7.39;100.00;96258.47;5057698;28;20215;-70
2022/11/14 09:07:36;;;;;;;19.80;8.87;;;;;;;7.50;100.00;96260.81;5060062;28;20228;-70
2022/11/14 09:10:03;;;;;;;19.87;8.23;;;;;;;7.75;100.00;96254.69;5057592;28;20582;-71
2022/11/14 09:12:32;;;;;;;18.93;9.00;;;;;;;7.68;100.00;96266.78;5057129;28;20200;-71
2022/11/14 09:14:58;;;;;;;21.40;9.30;;;;;;;7.88;100.00;96289.16;5057768;28;20244;-70
2022/11/14 09:17:25;;;;;;;21.13;8.43;;;;;;;8.03;100.00;96285.75;5062434;28;20247;-71
2022/11/14 09:19:51;;;;;;;21.70;8.70;;;;;;;8.21;100.00;96288.25;5057656;28;20683;-71
2022/11/14 09:22:18;;;;;;;17.10;7.87;;;;;;;8.13;100.00;96282.97;5055624;28;20254;-71
2022/11/14 09:24:46;;;;;;;18.37;8.20;;;;;;;8.16;100.00;96285.31;5065252;28;20205;-70
2022/11/14 09:27:13;;;;;;;19.53;7.97;;;;;;;8.44;100.00;96284.03;5057858;28;20220;-70
2022/11/14 09:29:41;;;;;;;16.07;7.90;;;;;;;8.48;100.00;96289.63;5064759;28;20203;-71
2022/11/14 09:32:08;;;;;;;16.70;8.17;;;;;;;8.58;100.00;96287.66;5057241;28;20557;-71
2022/11/14 09:34:36;;;;;;;21.50;8.40;;;;;;;8.69;100.00;96289.97;5064379;28;21173;-71
2022/11/14 09:37:02;;;;;;;18.80;7.87;;;;;;;8.55;100.00;96295.88;5065178;28;20573;-71
2022/11/14 09:39:29;;;;;;;17.97;9.40;;;;;;;8.50;100.00;96294.72;5059628;28;20652;-71
2022/11/14 09:42:06;;;;;;;22.10;8.70;;;;;;;8.92;100.00;96301.44;5056584;28;20211;-71
2022/11/14 09:44:56;;;;;;;18.37;8.50;;;;;;;9.18;100.00;96302.09;5056651;28;20197;-71
2022/11/14 09:47:27;;;;;;;17.63;8.60;;;;;;;9.01;100.00;96303.06;5052776;28;20227;-71
2022/11/14 09:49:59;;;;;;;19.10;8.40;;;;;;;9.03;100.00;96298.47;5055967;28;20212;-72
2022/11/14 09:52:30;;;;;;;19.43;8.63;;;;;;;9.09;100.00;96300.47;5056256;28;20219;-71
2022/11/14 09:54:59;;;;;;;12.20;5.93;;;;;;;9.46;100.00;96300.72;5057111;28;20256;-67
2022/11/14 09:57:27;;;;;;;12.63;6.23;;;;;;;10.42;100.00;96299.31;5056167;28;20732;-69
2022/11/14 09:59:55;;;;;;;21.60;9.23;;;;;;;10.68;100.00;96297.97;5062889;28;20216;-71
2022/11/14 10:02:37;;;;;;;19.57;8.63;;;;;;;10.97;100.00;96308.59;5056233;28;20207;-69
2022/11/14 10:05:17;;;;;;;17.17;8.27;;;;;;;10.85;100.00;96303.94;5064206;28;20195;-69
2022/11/14 10:07:54;;;;;;;16.20;7.90;;;;;;;10.67;100.00;96300.78;5064420;28;20470;-71
2022/11/14 10:10:34;;;;;;;15.57;8.13;;;;;;;10.22;100.00;96305.19;5060303;28;20204;-71
2022/11/14 10:13:17;;;;;;;14.07;7.43;;;;;;;9.61;100.00;96313.00;5064958;28;20200;-70
2022/11/14 10:15:54;;;;;;;16.73;8.13;;;;;;;9.37;100.00;96326.22;5065634;28;20911;-70
2022/11/14 10:18:35;;;;;;;14.97;8.03;;;;;;;9.11;100.00;96332.63;5057083;28;20232;-70
2022/11/14 10:21:13;;;;;;;15.40;7.63;;;;;;;9.32;100.00;96330.34;5056672;28;20196;-70
2022/11/14 10:23:51;;;;;;;17.80;7.90;;;;;;;9.56;100.00;96325.00;5060550;28;20211;-70
2022/11/14 10:26:25;;;;;;;16.13;7.80;;;;;;;9.82;100.00;96324.59;5060628;28;20672;-71
2022/11/14 10:29:08;;;;;;;17.53;8.20;;;;;;;9.99;100.00;96314.84;5056260;28;20807;-71
2022/11/14 10:31:47;;;;;;;16.00;8.27;;;;;;;10.19;100.00;96313.44;5060716;28;20202;-71
2022/11/14 10:34:25;;;;;;;16.27;7.43;;;;;;;10.30;100.00;96308.59;5058002;28;20203;-71
2022/11/14 10:37:02;;;;;;;15.17;7.50;;;;;;;10.50;100.00;96315.88;5066200;28;20607;-71
2022/11/14 10:39:35;;;;;;;13.43;7.30;;;;;;;10.66;100.00;96320.22;5070885;28;20368;-71
2022/11/14 10:42:08;;;;;;;19.80;7.53;;;;;;;10.47;100.00;96329.38;5064305;28;20200;-71
2022/11/14 10:44:41;;;;;;;15.80;7.43;;;;;;;10.73;100.00;96331.69;5064776;28;20206;-71
2022/11/14 10:47:14;;;;;;;16.70;7.50;;;;;;;11.02;100.00;96328.19;5062106;28;20217;-71
2022/11/14 10:49:41;;;;;;;16.00;7.37;;;;;;;11.04;100.00;96326.16;5067676;28;20195;-70
2022/11/14 10:52:14;;;;;;;14.60;6.90;;;;;;;11.15;100.00;96330.19;5065017;28;20216;-69
2022/11/14 10:54:45;;;;;;;17.80;6.77;;;;;;;11.29;100.00;96324.97;5065668;28;20215;-71
2022/11/14 10:57:17;;;;;;;17.50;7.47;;;;;;;11.24;100.00;96329.97;5065525;28;20227;-71
2022/11/14 10:59:44;;;;;;;12.23;6.10;;;;;;;11.29;100.00;96318.84;5066565;28;20220;-71
2022/11/14 11:02:12;;;;;;;11.40;6.23;;;;;;;11.37;100.00;96316.97;5063298;28;20196;-71
2022/11/14 11:04:40;;;;;;;12.33;6.63;;;;;;;11.55;99.20;96314.03;5064794;28;20679;-71
2022/11/14 11:13:04;;;;;;;11.97;6.10;;;;;;;11.75;98.47;96308.03;5059195;28;20262;-71
2022/11/14 11:15:32;;;;;;;14.97;6.10;;;;;;;11.77;98.30;96312.13;5059679;28;20200;-71
2022/11/14 11:18:01;;;;;;;13.23;6.40;;;;;;;11.89;97.19;96312.47;5065360;28;20242;-71
2022/11/14 11:20:32;;;;;;;13.50;6.20;;;;;;;11.91;98.44;96297.28;5061216;28;20226;-71
2022/11/14 11:23:04;;;;;;;14.33;6.37;;;;;;;11.96;98.14;96298.34;5065772;28;20208;-71
2022/11/14 11:25:32;;;;;;;11.97;6.17;;;;;;;11.88;98.51;96295.00;5059583;28;20860;-71
2022/11/14 11:28:07;;;;;;;11.80;5.93;;;;;;;11.90;98.50;96293.00;5059737;28;20224;-71
2022/11/14 11:30:34;;;;;;;12.97;6.20;;;;;;;11.68;99.86;96289.47;5059649;28;20204;-72
2022/11/14 11:33:22;;;;;;;12.33;5.97;;;;;;;11.72;99.98;96276.72;5061527;28;20731;-71